Time;durP1;ratioP1;P1;durP2;ratioP2;P2;SDS_P1;SDS_P2;PMS_P1;PMS_P2;Temp;Humidity;BMP_temperature;BMP_pressure;BME280_temperature;BME280_humidity;BME280_pressure;Samples;Min_cycle;Max_cycle;Signal;HPM_P1;HPM_P2
2021/01/08 00:00:24;;;;;;;11.93;5.60;;;2.00;82.60;;;;;;4956261;29;20150;-81
2021/01/08 00:06:15;;;;;;;13.68;6.15;;;1.90;82.50;;;;;;4956450;29;20051;-82
2021/01/08 00:12:02;;;;;;;12.75;6.00;;;2.00;82.70;;;;;;4956456;29;20058;-80
2021/01/08 00:17:50;;;;;;;15.48;7.05;;;2.00;82.70;;;;;;4956123;29;20070;-82
2021/01/08 00:23:38;;;;;;;13.00;5.70;;;1.90;82.80;;;;;;4956516;29;20396;-82
2021/01/08 00:29:25;;;;;;;16.38;6.80;;;2.00;82.80;;;;;;4956229;29;20042;-81
2021/01/08 00:35:13;;;;;;;10.23;4.03;;;2.00;82.70;;;;;;4956254;29;20042;-82
2021/01/08 00:44:36;;;;;;;7.78;3.58;;;1.90;82.70;;;;;;4956456;29;20042;-82
2021/01/08 00:50:24;;;;;;;14.50;5.55;;;1.90;82.60;;;;;;4956806;29;20081;-82
2021/01/08 00:56:19;;;;;;;8.05;2.47;;;1.90;83.00;;;;;;4956447;29;20502;-81
2021/01/08 01:02:06;;;;;;;15.45;6.28;;;2.00;82.90;;;;;;4962439;29;20030;-83
2021/01/08 01:07:54;;;;;;;10.55;4.68;;;2.00;82.90;;;;;;4957354;29;20403;-83
2021/01/08 01:13:43;;;;;;;13.68;5.70;;;2.00;82.80;;;;;;4962264;29;20047;-83
2021/01/08 01:19:31;;;;;;;11.43;4.60;;;1.90;82.70;;;;;;4956305;29;20090;-81
2021/01/08 01:25:18;;;;;;;11.68;5.38;;;1.90;82.70;;;;;;4955484;29;20078;-84
2021/01/08 01:31:09;;;;;;;8.18;3.20;;;1.90;82.90;;;;;;4955412;29;20087;-82
2021/01/08 01:36:57;;;;;;;15.07;6.53;;;1.90;82.80;;;;;;4955312;29;20026;-80
2021/01/08 01:46:33;;;;;;;9.25;4.47;;;1.90;83.00;;;;;;4958846;29;20418;-81
2021/01/08 01:52:21;;;;;;;9.07;3.63;;;1.90;82.90;;;;;;4958666;29;20034;-81
2021/01/08 01:58:08;;;;;;;13.02;5.55;;;2.00;83.10;;;;;;4958925;29;20498;-81
2021/01/08 02:03:57;;;;;;;11.93;4.82;;;2.00;83.00;;;;;;4958895;29;20063;-81
2021/01/08 02:09:45;;;;;;;14.57;5.82;;;2.00;83.20;;;;;;4958762;29;20038;-83
2021/01/08 02:15:34;;;;;;;7.75;4.13;;;2.10;83.00;;;;;;4958409;29;20035;-82
2021/01/08 02:21:30;;;;;;;9.48;4.40;;;2.10;82.90;;;;;;4958573;29;20121;-82
2021/01/08 02:27:18;;;;;;;10.93;5.07;;;2.10;83.10;;;;;;4958223;29;20046;-82
2021/01/08 02:33:06;;;;;;;2.92;1.80;;;2.10;82.90;;;;;;4958017;29;20029;-82
2021/01/08 02:38:54;;;;;;;14.32;6.78;;;2.10;82.90;;;;;;4957961;29;20114;-82
2021/01/08 02:44:42;;;;;;;11.55;5.15;;;2.10;82.90;;;;;;4955827;29;20478;-81
2021/01/08 02:50:30;;;;;;;14.27;6.47;;;2.10;83.10;;;;;;4957799;29;20448;-81
2021/01/08 02:56:22;;;;;;;12.30;5.40;;;2.20;83.40;;;;;;4957016;28;20031;-81
2021/01/08 03:02:09;;;;;;;14.23;6.13;;;2.20;83.00;;;;;;4957332;29;20033;-81
2021/01/08 03:07:57;;;;;;;10.68;4.75;;;2.20;83.00;;;;;;4957295;29;20499;-81
2021/01/08 03:13:45;;;;;;;13.43;5.63;;;2.20;83.10;;;;;;4957140;29;20079;-81
2021/01/08 03:19:33;;;;;;;13.45;4.72;;;2.10;82.70;;;;;;4957062;29;20079;-82
2021/01/08 03:25:20;;;;;;;4.30;2.55;;;2.00;82.50;;;;;;4957173;29;20026;-81
2021/01/08 03:31:08;;;;;;;5.47;2.70;;;2.00;82.80;;;;;;4956812;29;20071;-81
2021/01/08 03:36:56;;;;;;;9.30;3.95;;;2.00;83.10;;;;;;4956713;29;20038;-82
2021/01/08 03:42:43;;;;;;;6.38;2.42;;;2.00;82.80;;;;;;4956977;29;20034;-82
2021/01/08 03:48:31;;;;;;;9.55;3.72;;;2.00;83.10;;;;;;4957022;29;20443;-84
2021/01/08 03:54:19;;;;;;;7.63;3.08;;;1.90;82.40;;;;;;4959571;29;20082;-83
2021/01/08 04:00:07;;;;;;;11.45;4.63;;;1.80;82.30;;;;;;4956534;29;20514;-81
2021/01/08 04:05:55;;;;;;;10.15;4.38;;;1.70;82.50;;;;;;4956135;29;20078;-81
2021/01/08 04:11:42;;;;;;;10.60;4.70;;;1.60;82.40;;;;;;4956055;29;20111;-81
2021/01/08 04:17:30;;;;;;;16.42;4.47;;;1.50;82.20;;;;;;4956005;29;20118;-81
2021/01/08 04:23:17;;;;;;;10.95;4.28;;;1.40;82.20;;;;;;4956246;29;20037;-84
2021/01/08 04:29:05;;;;;;;10.18;3.95;;;1.40;82.20;;;;;;4955923;29;20042;-83
2021/01/08 04:34:52;;;;;;;8.68;3.17;;;1.30;82.60;;;;;;4956391;29;20099;-83
2021/01/08 04:40:40;;;;;;;11.48;4.88;;;1.30;82.70;;;;;;4956225;29;20078;-83
2021/01/08 04:50:16;;;;;;;11.57;4.82;;;1.50;83.10;;;;;;4955786;29;20042;-83
2021/01/08 04:56:07;;;;;;;4.90;1.83;;;1.50;82.70;;;;;;4955735;29;20031;-82
2021/01/08 05:01:55;;;;;;;10.95;4.45;;;1.50;82.80;;;;;;4955755;29;20497;-82
2021/01/08 05:07:44;;;;;;;10.15;4.10;;;1.50;82.70;;;;;;4955433;29;20046;-80
2021/01/08 05:13:37;;;;;;;11.60;4.88;;;1.40;82.50;;;;;;4955717;29;20429;-83
2021/01/08 05:19:25;;;;;;;18.63;8.57;;;1.40;82.50;;;;;;4958150;28;20023;-82
2021/01/08 05:25:13;;;;;;;11.48;4.57;;;1.40;82.60;;;;;;4959426;29;20497;-81
2021/01/08 05:31:08;;;;;;;15.38;4.78;;;1.40;82.70;;;;;;4959645;29;20038;-82
2021/01/08 05:36:57;;;;;;;11.30;4.45;;;1.50;83.00;;;;;;4959339;29;20069;-80
2021/01/08 05:43:03;;;;;;;18.60;8.07;;;1.50;82.70;;;;;;4959053;29;20499;-81
2021/01/08 05:53:12;;;;;;;11.43;4.25;;;1.30;82.30;;;;;;4958937;29;20090;-81
2021/01/08 05:59:04;;;;;;;9.40;4.47;;;1.30;82.70;;;;;;4958733;29;20107;-82
2021/01/08 06:04:52;;;;;;;4.18;2.03;;;1.40;82.70;;;;;;4959005;29;20139;-82
2021/01/08 06:10:44;;;;;;;9.00;4.05;;;1.40;83.00;;;;;;4958546;29;20054;-80
2021/01/08 06:16:37;;;;;;;9.70;4.22;;;1.40;82.70;;;;;;4958531;29;20042;-85
2021/01/08 06:22:25;;;;;;;10.68;4.28;;;1.50;83.30;;;;;;4958384;29;20078;-84
2021/01/08 06:28:14;;;;;;;2.25;1.05;;;1.60;83.20;;;;;;4958098;29;20182;-85
2021/01/08 06:34:03;;;;;;;6.75;2.45;;;1.60;82.80;;;;;;4958520;29;20026;-85
2021/01/08 06:39:56;;;;;;;9.40;4.15;;;1.70;83.10;;;;;;4963691;29;20038;-87
2021/01/08 06:45:54;;;;;;;11.45;4.50;;;1.80;83.10;;;;;;4959103;29;20066;-96
2021/01/08 06:55:46;;;;;;;9.27;3.55;;;1.70;82.80;;;;;;4961291;29;20097;-90
2021/01/08 07:01:55;;;;;;;13.18;5.15;;;1.80;83.00;;;;;;4958607;29;20094;-84
2021/01/08 07:07:43;;;;;;;11.88;4.45;;;1.80;83.00;;;;;;4961506;29;20468;-86
2021/01/08 07:13:30;;;;;;;11.82;4.40;;;1.80;83.60;;;;;;4961003;29;20518;-89
2021/01/08 07:19:24;;;;;;;10.00;3.83;;;1.90;82.80;;;;;;4964423;29;20038;-90
2021/01/08 07:25:13;;;;;;;10.65;4.55;;;1.90;83.00;;;;;;4958672;29;20045;-90
2021/01/08 07:31:13;;;;;;;8.70;3.30;;;2.00;83.10;;;;;;4957571;29;20066;-87
2021/01/08 07:37:01;;;;;;;9.70;4.05;;;2.00;82.90;;;;;;4957232;29;20412;-90
2021/01/08 07:42:59;;;;;;;3.70;1.88;;;2.10;83.00;;;;;;4957419;28;20041;-90
2021/01/08 07:48:50;;;;;;;9.52;4.05;;;2.20;83.10;;;;;;4957140;29;20038;-88
2021/01/08 07:58:38;;;;;;;13.65;5.10;;;2.30;83.20;;;;;;4956999;29;20078;-89
2021/01/08 08:04:29;;;;;;;11.43;4.13;;;2.50;83.50;;;;;;4956670;29;20562;-88
2021/01/08 08:10:29;;;;;;;11.10;4.43;;;2.50;83.20;;;;;;4956367;29;20162;-84
2021/01/08 08:16:33;;;;;;;12.00;5.07;;;2.60;83.10;;;;;;4956405;29;20030;-87
2021/01/08 08:22:41;;;;;;;11.50;4.28;;;2.60;82.90;;;;;;4960788;29;20027;-90
2021/01/08 08:28:29;;;;;;;9.00;3.75;;;2.60;82.90;;;;;;4956130;29;20126;-88
2021/01/08 08:34:30;;;;;;;11.15;4.50;;;2.70;83.00;;;;;;4956381;29;20147;-87
2021/01/08 08:40:43;;;;;;;7.70;3.35;;;2.70;83.00;;;;;;4955912;29;20062;-88
2021/01/08 08:46:51;;;;;;;11.05;4.80;;;2.80;83.10;;;;;;4957455;29;20046;-94
2021/01/08 08:52:39;;;;;;;13.13;5.38;;;2.90;83.60;;;;;;4961879;28;20117;-89
2021/01/08 08:58:26;;;;;;;11.80;5.60;;;3.10;83.50;;;;;;4963032;29;20054;-87
2021/01/08 09:04:14;;;;;;;13.38;5.57;;;3.20;83.00;;;;;;4963744;28;20455;-92
2021/01/08 09:10:08;;;;;;;12.70;5.30;;;3.30;83.50;;;;;;4963387;29;20514;-92
2021/01/08 09:16:15;;;;;;;10.63;4.10;;;3.50;83.50;;;;;;4963554;29;20054;-94
2021/01/08 09:22:05;;;;;;;12.35;5.75;;;3.50;83.40;;;;;;4968071;28;20030;-94
2021/01/08 09:27:53;;;;;;;12.45;5.72;;;3.70;83.30;;;;;;4968539;29;20041;-90
2021/01/08 09:33:41;;;;;;;14.27;5.95;;;3.70;82.70;;;;;;4962364;28;20444;-88
2021/01/08 09:39:29;;;;;;;8.73;4.07;;;3.70;82.60;;;;;;4962691;29;20156;-91
2021/01/08 09:45:23;;;;;;;14.70;6.43;;;3.80;83.30;;;;;;4962203;29;20026;-87
2021/01/08 09:51:11;;;;;;;18.13;8.85;;;3.80;83.30;;;;;;4962253;29;20174;-87
2021/01/08 10:01:00;;;;;;;8.43;3.45;;;3.90;82.60;;;;;;4963574;28;20388;-92
2021/01/08 10:07:04;;;;;;;10.70;5.43;;;3.90;82.90;;;;;;4961428;29;20042;-91
2021/01/08 10:12:57;;;;;;;9.88;4.15;;;3.90;82.90;;;;;;4959197;29;20090;-89
2021/01/08 10:18:45;;;;;;;10.85;5.03;;;4.10;83.10;;;;;;4959174;29;20486;-91
2021/01/08 10:24:33;;;;;;;10.65;4.80;;;4.30;84.40;;;;;;4959131;29;20038;-91
2021/01/08 10:30:21;;;;;;;7.88;3.72;;;4.90;84.50;;;;;;4959159;29;20078;-90
2021/01/08 10:36:10;;;;;;;8.73;3.80;;;5.00;83.50;;;;;;4958773;29;20038;-94
2021/01/08 10:41:57;;;;;;;12.50;5.85;;;5.20;81.60;;;;;;4958106;29;20030;-85
2021/01/08 10:47:47;;;;;;;8.15;4.00;;;4.90;82.30;;;;;;4958618;29;20050;-90
2021/01/08 10:53:36;;;;;;;9.73;4.00;;;4.90;82.50;;;;;;4958569;29;20026;-89
2021/01/08 11:03:24;;;;;;;11.88;4.63;;;4.90;82.20;;;;;;4957842;29;20046;-87
2021/01/08 11:09:12;;;;;;;4.45;2.10;;;5.00;83.40;;;;;;4957514;29;20094;-86
2021/01/08 11:15:00;;;;;;;8.85;3.75;;;4.80;82.50;;;;;;4957433;29;20030;-86
2021/01/08 11:20:48;;;;;;;7.72;3.35;;;4.60;81.10;;;;;;4957343;29;20383;-86
2021/01/08 11:26:35;;;;;;;4.82;2.35;;;4.30;81.40;;;;;;4957119;29;20089;-85
2021/01/08 11:32:23;;;;;;;9.88;4.22;;;4.20;82.50;;;;;;4956854;29;20087;-85
2021/01/08 11:38:11;;;;;;;9.90;4.30;;;4.40;82.40;;;;;;4956731;29;20033;-85
2021/01/08 11:43:59;;;;;;;6.30;2.60;;;4.30;81.90;;;;;;4957042;29;20054;-85
2021/01/08 11:49:46;;;;;;;11.32;4.80;;;4.20;82.00;;;;;;4957682;29;20071;-87
2021/01/08 11:55:34;;;;;;;10.00;4.03;;;4.20;82.00;;;;;;4957702;29;20046;-89
2021/01/08 12:05:15;;;;;;;9.13;4.03;;;4.30;83.00;;;;;;4959283;29;20416;-87
2021/01/08 12:11:03;;;;;;;7.10;3.00;;;4.40;82.10;;;;;;4957810;29;20077;-84
2021/01/08 12:16:51;;;;;;;8.75;3.70;;;4.20;81.50;;;;;;4962400;29;20049;-85
2021/01/08 12:22:40;;;;;;;6.93;3.35;;;4.10;82.10;;;;;;4956310;29;20082;-85
2021/01/08 12:28:27;;;;;;;7.65;3.38;;;4.10;81.80;;;;;;4957551;28;20173;-89
2021/01/08 12:34:15;;;;;;;8.25;3.45;;;4.10;82.10;;;;;;4956199;29;20050;-86
2021/01/08 12:40:04;;;;;;;7.95;3.33;;;4.00;82.20;;;;;;4956043;29;20510;-88
2021/01/08 12:45:52;;;;;;;3.70;1.98;;;3.90;81.90;;;;;;4956234;29;20039;-87
2021/01/08 12:51:39;;;;;;;5.70;2.35;;;3.80;81.90;;;;;;4956200;29;20034;-89
2021/01/08 12:57:27;;;;;;;10.00;4.70;;;3.60;81.60;;;;;;4956414;29;20075;-92
2021/01/08 13:03:15;;;;;;;6.72;3.10;;;3.60;82.20;;;;;;4957370;28;20057;-90
2021/01/08 13:09:03;;;;;;;7.38;3.22;;;3.60;82.30;;;;;;4956118;29;20058;-89
2021/01/08 13:14:51;;;;;;;12.48;4.35;;;3.60;82.30;;;;;;4955915;29;20383;-86
2021/01/08 13:20:38;;;;;;;3.10;1.60;;;3.60;82.30;;;;;;4955544;29;20437;-86
2021/01/08 13:26:26;;;;;;;2.17;1.38;;;3.50;82.00;;;;;;4955834;29;20042;-87
2021/01/08 13:32:14;;;;;;;10.77;4.53;;;3.40;82.10;;;;;;4956710;29;20034;-88
2021/01/08 13:38:02;;;;;;;14.77;6.13;;;3.50;82.40;;;;;;4957238;29;20046;-89
2021/01/08 13:43:50;;;;;;;10.27;4.43;;;3.50;82.30;;;;;;4959388;29;20082;-89
2021/01/08 13:49:38;;;;;;;2.97;1.63;;;3.40;82.00;;;;;;4959565;29;20133;-89
2021/01/08 13:55:26;;;;;;;10.25;3.92;;;3.30;82.20;;;;;;4959231;29;20127;-88
2021/01/08 14:01:16;;;;;;;13.40;5.55;;;3.20;81.80;;;;;;4959281;29;20091;-87
2021/01/08 14:07:03;;;;;;;8.07;3.13;;;3.20;82.10;;;;;;4959545;29;20423;-91
2021/01/08 14:12:55;;;;;;;6.28;2.97;;;3.10;82.20;;;;;;4959792;29;20042;-89
2021/01/08 14:18:43;;;;;;;16.73;6.93;;;3.20;82.20;;;;;;4958785;29;20170;-93
2021/01/08 14:30:58;;;;;;;11.13;5.13;;;3.20;81.80;;;;;;4963220;29;20034;-93
2021/01/08 14:36:47;;;;;;;8.20;3.92;;;3.10;81.80;;;;;;4963832;29;20034;-94
2021/01/08 14:42:35;;;;;;;8.07;3.35;;;3.10;82.20;;;;;;4960242;29;20542;-89
2021/01/08 14:48:23;;;;;;;10.45;5.00;;;3.00;82.00;;;;;;4961551;29;20042;-92
2021/01/08 14:54:11;;;;;;;6.57;3.33;;;2.90;81.80;;;;;;4959916;29;20494;-90
2021/01/08 15:00:00;;;;;;;6.85;2.80;;;2.80;81.70;;;;;;4960233;29;20131;-91
2021/01/08 15:09:36;;;;;;;9.15;4.20;;;2.70;82.10;;;;;;4959538;29;20057;-92
2021/01/08 15:15:24;;;;;;;9.05;4.60;;;2.60;81.90;;;;;;4959583;29;20031;-91
2021/01/08 15:21:12;;;;;;;5.53;2.67;;;2.60;82.00;;;;;;4960127;29;20050;-90
2021/01/08 15:27:01;;;;;;;4.38;2.40;;;2.50;82.20;;;;;;4960208;29;20062;-91
2021/01/08 15:32:48;;;;;;;7.55;3.45;;;2.50;82.00;;;;;;4961603;29;20057;-91
2021/01/08 15:38:38;;;;;;;10.45;4.82;;;2.50;82.10;;;;;;4961094;29;20046;-93
2021/01/08 15:44:26;;;;;;;9.30;4.68;;;2.40;82.10;;;;;;4959231;29;20163;-87
2021/01/08 15:50:14;;;;;;;9.43;5.18;;;2.40;82.30;;;;;;4956833;29;20034;-87
2021/01/08 15:56:02;;;;;;;12.88;5.65;;;2.50;82.50;;;;;;4956654;29;20037;-87
2021/01/08 16:01:49;;;;;;;10.40;4.45;;;2.50;82.30;;;;;;4957233;28;20098;-89
2021/01/08 16:07:37;;;;;;;11.50;5.25;;;2.40;82.30;;;;;;4954893;28;20058;-89
2021/01/08 16:13:25;;;;;;;8.55;4.03;;;2.50;82.40;;;;;;4956146;29;20046;-89
2021/01/08 16:19:12;;;;;;;10.65;4.40;;;2.40;81.90;;;;;;4955905;29;20045;-87
2021/01/08 16:25:00;;;;;;;4.95;2.38;;;2.40;82.20;;;;;;4956633;29;20154;-88
2021/01/08 16:30:49;;;;;;;9.10;4.07;;;2.40;82.40;;;;;;4959263;29;20050;-87
2021/01/08 16:36:38;;;;;;;11.73;5.25;;;2.40;81.90;;;;;;4957577;29;20033;-88
2021/01/08 16:42:26;;;;;;;5.28;2.38;;;2.50;82.40;;;;;;4956651;29;20155;-89
2021/01/08 16:48:13;;;;;;;12.43;5.80;;;2.40;82.30;;;;;;4956831;29;20139;-89
2021/01/08 16:54:01;;;;;;;12.75;5.88;;;2.50;82.70;;;;;;4956665;29;20111;-88
2021/01/08 16:59:49;;;;;;;11.35;5.15;;;2.50;82.40;;;;;;4956902;29;20395;-89
2021/01/08 17:05:38;;;;;;;14.73;7.10;;;2.50;82.50;;;;;;4956037;29;20535;-88
2021/01/08 17:11:26;;;;;;;13.57;6.75;;;2.50;82.40;;;;;;4956651;29;20079;-90
2021/01/08 17:17:13;;;;;;;12.88;5.85;;;2.50;82.20;;;;;;4959530;29;20067;-79
2021/01/08 17:23:01;;;;;;;14.05;7.00;;;2.50;82.60;;;;;;4959154;29;20102;-80
2021/01/08 17:28:48;;;;;;;14.20;6.85;;;2.50;82.60;;;;;;4959027;29;20067;-79
2021/01/08 17:34:36;;;;;;;18.52;8.43;;;2.50;82.30;;;;;;4959155;29;20062;-80
2021/01/08 17:40:24;;;;;;;16.58;4.43;;;2.50;82.70;;;;;;4959051;29;20042;-79
2021/01/08 17:46:12;;;;;;;1.02;0.95;;;2.50;82.40;;;;;;4959267;29;20031;-79
2021/01/08 17:52:00;;;;;;;10.40;4.75;;;2.50;82.20;;;;;;4961898;29;20054;-80
2021/01/08 17:57:51;;;;;;;11.70;5.95;;;2.40;82.10;;;;;;4959319;29;20090;-80
2021/01/08 18:03:39;;;;;;;12.02;5.80;;;2.40;82.40;;;;;;4958850;29;20123;-79
2021/01/08 18:13:15;;;;;;;15.90;7.20;;;2.40;82.20;;;;;;4958521;29;20514;-79
2021/01/08 18:19:03;;;;;;;14.50;6.55;;;2.30;82.30;;;;;;4958484;29;20069;-80
2021/01/08 18:24:50;;;;;;;13.10;5.22;;;2.30;82.40;;;;;;4959310;29;20062;-80
2021/01/08 18:30:38;;;;;;;7.68;3.90;;;2.30;82.10;;;;;;4958854;29;20136;-80
2021/01/08 18:36:37;;;;;;;9.65;4.85;;;2.30;82.10;;;;;;4958698;29;20042;-80
2021/01/08 18:42:25;;;;;;;15.32;7.20;;;2.30;82.10;;;;;;4958745;29;20026;-80
2021/01/08 18:48:12;;;;;;;15.85;7.22;;;2.20;82.20;;;;;;4958258;29;20099;-81
2021/01/08 18:54:00;;;;;;;7.15;3.47;;;2.30;82.50;;;;;;4958222;29;20075;-81
2021/01/08 18:59:47;;;;;;;3.30;2.08;;;2.30;82.10;;;;;;4958099;29;20043;-82
2021/01/08 19:05:37;;;;;;;15.15;6.90;;;2.30;82.40;;;;;;4958000;29;20498;-82
2021/01/08 19:11:25;;;;;;;17.98;7.50;;;2.30;82.50;;;;;;4956227;28;20089;-82
2021/01/08 19:17:12;;;;;;;22.27;11.13;;;2.30;82.30;;;;;;4957717;29;20046;-82
2021/01/08 19:23:01;;;;;;;15.65;7.95;;;2.30;82.50;;;;;;4958094;29;20038;-82
2021/01/08 19:28:48;;;;;;;16.38;7.78;;;2.30;82.20;;;;;;4957237;29;20090;-83
2021/01/08 19:34:36;;;;;;;18.92;9.40;;;2.30;82.20;;;;;;4957567;29;20390;-83
2021/01/08 19:40:24;;;;;;;14.65;7.18;;;2.40;82.40;;;;;;4958741;29;20038;-84
2021/01/08 19:46:12;;;;;;;16.35;7.55;;;2.30;82.20;;;;;;4957502;29;20432;-83
2021/01/08 19:52:00;;;;;;;18.88;8.93;;;2.30;82.20;;;;;;4957624;29;20045;-83
2021/01/08 19:57:48;;;;;;;17.73;8.20;;;2.40;82.50;;;;;;4958198;29;20034;-83
2021/01/08 20:03:41;;;;;;;31.67;13.95;;;2.50;82.70;;;;;;4957424;29;20030;-83
2021/01/08 20:09:29;;;;;;;17.75;8.18;;;2.50;82.60;;;;;;4957444;29;20090;-83
2021/01/08 20:15:20;;;;;;;16.60;7.85;;;2.60;82.70;;;;;;4957063;29;20039;-83
2021/01/08 20:21:08;;;;;;;16.45;7.28;;;2.60;82.20;;;;;;4956664;29;20372;-82
2021/01/08 20:26:55;;;;;;;17.00;7.80;;;2.60;82.70;;;;;;4956732;29;20523;-82
2021/01/08 20:32:44;;;;;;;22.83;9.50;;;2.60;82.70;;;;;;4957803;29;20042;-80
2021/01/08 20:38:32;;;;;;;13.45;6.38;;;2.60;82.30;;;;;;4957684;29;20050;-80
2021/01/08 20:44:19;;;;;;;18.95;8.23;;;2.60;82.40;;;;;;4956847;29;20130;-81
2021/01/08 20:50:07;;;;;;;15.85;7.13;;;2.60;82.40;;;;;;4956175;28;20089;-80
2021/01/08 20:55:55;;;;;;;20.40;8.55;;;2.60;82.40;;;;;;4956851;29;20094;-80
2021/01/08 21:01:43;;;;;;;17.55;8.18;;;2.60;82.30;;;;;;4956317;29;20391;-80
2021/01/08 21:07:30;;;;;;;20.23;8.85;;;2.60;82.40;;;;;;4956225;29;20073;-80
2021/01/08 21:17:05;;;;;;;15.32;6.70;;;2.50;81.90;;;;;;4957188;29;20046;-81
2021/01/08 21:22:57;;;;;;;17.35;8.45;;;2.50;82.20;;;;;;4956283;29;20095;-80
2021/01/08 21:28:44;;;;;;;18.70;7.65;;;2.40;82.30;;;;;;4955765;29;20067;-81
2021/01/08 21:34:35;;;;;;;19.02;8.38;;;2.50;82.40;;;;;;4956651;29;20392;-81
2021/01/08 21:40:23;;;;;;;17.05;7.00;;;2.50;82.50;;;;;;4955646;29;20034;-81
2021/01/08 21:46:10;;;;;;;15.57;6.45;;;2.60;82.70;;;;;;4955201;29;20031;-81
2021/01/08 21:51:58;;;;;;;17.13;7.75;;;2.60;82.50;;;;;;4956649;29;20054;-81
2021/01/08 21:57:46;;;;;;;16.45;6.30;;;2.70;82.90;;;;;;4955151;29;20090;-80
2021/01/08 22:03:33;;;;;;;17.70;7.55;;;2.80;82.50;;;;;;4958374;29;20104;-81
2021/01/08 22:09:21;;;;;;;17.17;8.02;;;2.80;82.60;;;;;;4958504;29;20054;-80
2021/01/08 22:15:10;;;;;;;18.17;8.05;;;2.80;82.30;;;;;;4956615;28;20054;-82
2021/01/08 22:21:01;;;;;;;16.77;7.38;;;2.80;82.30;;;;;;4958439;29;20039;-82
2021/01/08 22:26:49;;;;;;;14.38;6.25;;;2.80;82.20;;;;;;4958355;29;20050;-82
2021/01/08 22:32:37;;;;;;;17.73;7.55;;;2.70;82.10;;;;;;4958212;29;20034;-82
2021/01/08 22:38:24;;;;;;;19.73;8.70;;;2.70;82.40;;;;;;4958042;29;20099;-82
2021/01/08 22:44:12;;;;;;;17.17;7.95;;;2.80;82.70;;;;;;4957748;29;20551;-82
2021/01/08 22:50:00;;;;;;;19.27;8.32;;;2.90;82.30;;;;;;4957823;29;20049;-82
2021/01/08 22:55:48;;;;;;;15.85;6.65;;;2.80;82.00;;;;;;4957775;29;20037;-82
2021/01/08 23:01:39;;;;;;;18.08;7.80;;;2.80;82.30;;;;;;4957756;29;20499;-82
2021/01/08 23:07:27;;;;;;;16.92;7.13;;;2.70;82.40;;;;;;4957567;29;20038;-81
2021/01/08 23:13:15;;;;;;;16.70;7.88;;;2.70;82.40;;;;;;4956628;28;20131;-81
2021/01/08 23:19:03;;;;;;;15.13;6.15;;;2.80;82.30;;;;;;4961632;29;20383;-81
2021/01/08 23:24:51;;;;;;;17.05;7.22;;;2.80;82.30;;;;;;4957443;29;20083;-84
2021/01/08 23:30:39;;;;;;;15.95;7.43;;;2.80;82.20;;;;;;4956941;29;20038;-84
2021/01/08 23:36:26;;;;;;;19.33;8.35;;;2.80;82.60;;;;;;4957035;29;20042;-82
2021/01/08 23:42:14;;;;;;;20.25;9.00;;;2.80;82.10;;;;;;4957004;29;20118;-83
2021/01/08 23:48:02;;;;;;;17.50;7.53;;;2.80;82.50;;;;;;4956536;29;20133;-82
2021/01/08 23:53:49;;;;;;;18.80;8.85;;;2.70;81.60;;;;;;4956782;29;20119;-82
2021/01/08 23:59:37;;;;;;;20.60;9.15;;;2.70;82.20;;;;;;4956350;29;20037;-81
